createdAt,value
2022-11-08T00:01:55.451Z,11.52
2022-11-08T00:04:31.214Z,11.52
2022-11-08T00:07:20.879Z,11.50
2022-11-08T00:10:11.126Z,11.50
2022-11-08T00:13:01.410Z,11.43
2022-11-08T00:15:38.392Z,11.38
2022-11-08T00:18:11.348Z,11.34
2022-11-08T00:20:43.670Z,11.35
2022-11-08T00:23:16.048Z,11.31
2022-11-08T00:25:54.557Z,11.52
2022-11-08T00:28:27.665Z,11.56
2022-11-08T00:30:59.993Z,11.54
2022-11-08T00:33:33.611Z,11.61
2022-11-08T00:36:07.121Z,11.63
2022-11-08T00:38:44.394Z,11.46
2022-11-08T00:41:17.547Z,11.65
2022-11-08T00:43:49.893Z,11.64
2022-11-08T00:46:24.235Z,11.63
2022-11-08T00:48:56.724Z,11.58
2022-11-08T00:51:30.094Z,11.57
2022-11-08T00:54:02.475Z,11.57
2022-11-08T00:56:35.208Z,11.56
2022-11-08T00:59:09.039Z,11.49
2022-11-08T01:01:42.291Z,11.53
2022-11-08T01:04:20.916Z,11.54
2022-11-08T01:06:53.418Z,11.54
2022-11-08T01:09:26.408Z,11.53
2022-11-08T01:11:58.801Z,11.48
2022-11-08T01:14:31.107Z,11.38
2022-11-08T01:17:03.694Z,11.53
2022-11-08T01:19:36.343Z,11.53
2022-11-08T01:22:08.377Z,11.40
2022-11-08T01:24:42.501Z,11.42
2022-11-08T01:27:14.973Z,11.37
2022-11-08T01:29:47.466Z,11.37
2022-11-08T01:32:19.800Z,11.29
2022-11-08T01:34:54.852Z,11.42
2022-11-08T01:37:27.211Z,11.44
2022-11-08T01:40:00.109Z,11.44
2022-11-08T01:42:34.482Z,11.45
2022-11-08T01:45:12.901Z,11.44
2022-11-08T01:47:45.322Z,11.45
2022-11-08T01:50:21.546Z,11.34
2022-11-08T01:52:57.079Z,11.42
2022-11-08T01:55:35.928Z,11.39
2022-11-08T01:58:15.840Z,11.36
2022-11-08T02:00:48.949Z,11.35
2022-11-08T02:03:22.789Z,11.33
2022-11-08T02:05:56.341Z,11.31
2022-11-08T02:08:34.552Z,11.30
2022-11-08T02:11:14.955Z,11.25
2022-11-08T02:13:49.154Z,11.24
2022-11-08T02:16:22.202Z,11.25
2022-11-08T02:18:55.141Z,11.10
2022-11-08T02:21:35.929Z,11.19
2022-11-08T02:24:12.000Z,11.17
2022-11-08T02:26:46.484Z,11.12
2022-11-08T02:29:33.811Z,11.10
2022-11-08T02:32:10.601Z,11.09
2022-11-08T02:34:51.449Z,11.08
2022-11-08T02:37:25.245Z,11.04
2022-11-08T02:39:57.934Z,11.00
2022-11-08T02:42:30.680Z,10.98
2022-11-08T02:45:05.263Z,10.97
2022-11-08T02:47:35.876Z,10.95
2022-11-08T02:50:12.956Z,10.84
2022-11-08T02:52:46.239Z,10.93
2022-11-08T02:55:18.786Z,10.89
2022-11-08T02:57:51.786Z,10.85
2022-11-08T03:00:24.546Z,10.82
2022-11-08T03:02:59.701Z,10.79
2022-11-08T03:05:39.203Z,10.73
2022-11-08T03:08:14.567Z,10.71
2022-11-08T03:10:47.425Z,10.69
2022-11-08T03:13:21.432Z,10.63
2022-11-08T03:15:53.722Z,10.62
2022-11-08T03:18:25.798Z,10.47
2022-11-08T03:21:00.222Z,10.56
2022-11-08T03:23:34.303Z,10.57
2022-11-08T03:26:11.126Z,10.54
2022-11-08T03:28:43.515Z,10.47
2022-11-08T03:31:16.081Z,10.50
2022-11-08T03:33:48.646Z,10.52
2022-11-08T03:36:21.013Z,10.44
2022-11-08T03:38:53.503Z,10.48
2022-11-08T03:41:26.194Z,10.39
2022-11-08T03:43:58.810Z,10.51
2022-11-08T03:46:31.160Z,10.45
2022-11-08T03:49:03.350Z,10.46
2022-11-08T03:51:35.589Z,10.47
2022-11-08T03:54:07.811Z,10.46
2022-11-08T03:56:39.889Z,10.45
2022-11-08T03:59:16.448Z,10.46
2022-11-08T04:01:48.622Z,10.44
2022-11-08T04:04:22.189Z,10.41
2022-11-08T04:06:54.627Z,10.38
2022-11-08T04:09:27.213Z,10.36
2022-11-08T04:12:16.968Z,10.38
2022-11-08T04:15:08.341Z,10.36
2022-11-08T04:17:58.386Z,10.36
2022-11-08T04:20:49.594Z,10.37
2022-11-08T04:23:22.877Z,10.35
2022-11-08T04:25:59.362Z,10.33
2022-11-08T04:28:35.390Z,10.31
2022-11-08T04:31:10.937Z,10.26
2022-11-08T04:33:43.552Z,10.27
2022-11-08T04:36:17.594Z,10.27
2022-11-08T04:38:52.807Z,10.24
2022-11-08T04:41:26.849Z,10.24
2022-11-08T04:43:59.505Z,10.27
2022-11-08T04:46:33.351Z,10.27
2022-11-08T04:49:06.633Z,9.97
2022-11-08T04:51:39.737Z,10.21
2022-11-08T04:54:15.403Z,10.22
2022-11-08T04:56:47.446Z,10.25
2022-11-08T04:59:19.622Z,10.27
2022-11-08T05:01:53.367Z,10.26
2022-11-08T05:04:26.624Z,10.22
2022-11-08T05:06:58.712Z,10.26
2022-11-08T05:09:31.159Z,10.24
2022-11-08T05:12:03.421Z,10.27
2022-11-08T05:14:35.732Z,10.27
2022-11-08T05:17:08.335Z,10.28
2022-11-08T05:19:58.943Z,10.27
2022-11-08T05:22:48.708Z,10.26
2022-11-08T05:25:20.957Z,10.12
2022-11-08T05:27:53.582Z,10.20
2022-11-08T05:30:25.875Z,10.24
2022-11-08T05:33:01.002Z,10.23
2022-11-08T05:35:36.096Z,10.21
2022-11-08T05:38:10.298Z,10.16
2022-11-08T05:40:44.561Z,10.17
2022-11-08T05:43:18.738Z,10.18
2022-11-08T05:45:51.221Z,10.17
2022-11-08T05:48:23.816Z,10.17
2022-11-08T05:50:58.535Z,10.16
2022-11-08T05:53:32.395Z,10.15
2022-11-08T05:56:12.605Z,10.15
2022-11-08T05:58:47.160Z,10.11
2022-11-08T06:01:21.541Z,10.08
2022-11-08T06:03:53.800Z,10.07
2022-11-08T06:06:28.526Z,10.09
2022-11-08T06:09:00.317Z,10.08
2022-11-08T06:11:32.294Z,10.07
2022-11-08T06:14:04.510Z,10.07
2022-11-08T06:16:37.950Z,10.07
2022-11-08T06:19:12.495Z,10.11
2022-11-08T06:21:43.582Z,10.10
2022-11-08T06:24:18.962Z,10.07
2022-11-08T06:26:51.419Z,10.04
2022-11-08T06:29:28.622Z,10.03
2022-11-08T06:32:00.809Z,10.05
2022-11-08T06:34:33.199Z,10.11
2022-11-08T06:37:08.322Z,10.16
2022-11-08T06:39:45.877Z,10.16
2022-11-08T06:42:17.992Z,10.16
2022-11-08T06:44:50.846Z,10.14
2022-11-08T06:47:23.719Z,10.17
2022-11-08T06:49:56.523Z,10.18
2022-11-08T06:52:28.834Z,10.20
2022-11-08T06:55:03.897Z,10.21
2022-11-08T06:57:35.927Z,10.21
2022-11-08T07:00:18.327Z,10.20
2022-11-08T07:02:54.773Z,10.34
2022-11-08T07:05:27.797Z,10.39
2022-11-08T07:08:02.172Z,10.49
2022-11-08T07:10:36.555Z,10.43
2022-11-08T07:13:12.003Z,10.49
2022-11-08T07:15:45.408Z,10.51
2022-11-08T07:18:19.421Z,10.47
2022-11-08T07:20:52.339Z,10.53
2022-11-08T07:23:24.475Z,10.73
2022-11-08T07:25:56.547Z,10.77
2022-11-08T07:28:28.891Z,10.78
2022-11-08T07:31:03.868Z,10.71
2022-11-08T07:33:36.568Z,10.86
2022-11-08T07:36:09.218Z,10.83
2022-11-08T07:38:41.519Z,10.90
2022-11-08T07:41:13.781Z,10.99
2022-11-08T07:43:46.092Z,11.01
2022-11-08T07:46:22.075Z,11.05
2022-11-08T07:48:54.953Z,11.02
2022-11-08T07:51:27.106Z,11.12
2022-11-08T07:54:02.856Z,11.26
2022-11-08T07:56:35.329Z,11.24
2022-11-08T07:59:07.486Z,11.27
2022-11-08T08:01:39.613Z,11.36
2022-11-08T08:04:12.328Z,11.35
2022-11-08T08:06:44.325Z,11.54
2022-11-08T08:09:16.606Z,11.63
2022-11-08T08:11:48.801Z,11.70
2022-11-08T08:14:20.912Z,11.71
2022-11-08T08:16:53.210Z,11.63
2022-11-08T08:19:25.383Z,11.57
2022-11-08T08:21:57.479Z,11.77
2022-11-08T08:24:29.503Z,11.87
2022-11-08T08:27:01.507Z,11.96
2022-11-08T08:29:33.461Z,11.91
2022-11-08T08:32:05.803Z,12.02
2022-11-08T08:34:38.127Z,12.15
2022-11-08T08:37:10.304Z,12.09
2022-11-08T08:39:42.308Z,12.24
2022-11-08T08:42:14.288Z,12.21
2022-11-08T08:44:46.294Z,12.31
2022-11-08T08:47:18.464Z,12.30
2022-11-08T08:49:50.641Z,12.30
2022-11-08T08:52:23.028Z,12.43
2022-11-08T08:54:54.946Z,12.42
2022-11-08T08:57:27.041Z,12.49
2022-11-08T09:02:51.408Z,12.53
2022-11-08T09:05:23.862Z,12.59
2022-11-08T09:07:58.890Z,12.75
2022-11-08T09:10:31.284Z,12.89
2022-11-08T09:13:03.849Z,13.02
2022-11-08T09:15:36.068Z,13.03
2022-11-08T09:18:09.719Z,13.05
2022-11-08T09:20:43.849Z,13.18
2022-11-08T09:23:18.149Z,13.31
2022-11-08T09:25:50.848Z,13.37
2022-11-08T09:28:26.918Z,13.53
2022-11-08T09:31:04.013Z,13.50
2022-11-08T09:33:36.481Z,13.46
2022-11-08T09:36:13.621Z,13.47
2022-11-08T09:38:48.262Z,13.64
2022-11-08T09:41:55.475Z,13.73
2022-11-08T09:44:49.024Z,13.74
2022-11-08T09:47:24.961Z,13.85
2022-11-08T09:50:06.530Z,13.98
2022-11-08T09:52:41.488Z,14.06
2022-11-08T09:55:22.113Z,14.08
2022-11-08T09:58:12.164Z,14.15
2022-11-08T10:00:45.208Z,14.20
2022-11-08T10:03:19.784Z,14.18
2022-11-08T10:06:03.417Z,14.22
2022-11-08T10:08:44.919Z,14.34
2022-11-08T12:14:14.940Z,16.42
2022-11-08T12:16:55.015Z,16.57
2022-11-08T12:20:24.190Z,16.49
2022-11-08T12:23:24.881Z,16.34
2022-11-08T12:26:05.580Z,16.43
2022-11-08T12:28:53.450Z,16.46
2022-11-08T12:31:33.406Z,16.54
2022-11-08T12:34:22.727Z,16.63
2022-11-08T12:37:08.420Z,16.58
2022-11-08T12:39:47.112Z,16.56
2022-11-08T12:42:37.961Z,16.55
2022-11-08T12:45:39.196Z,16.49
2022-11-08T12:48:23.660Z,16.53
2022-11-08T12:51:04.473Z,16.61
2022-11-08T12:54:02.067Z,16.63
2022-11-08T12:56:40.350Z,16.61
2022-11-08T12:59:22.272Z,16.59
2022-11-08T13:01:56.085Z,16.54
2022-11-08T13:04:46.455Z,16.50
2022-11-08T13:07:27.006Z,16.54
2022-11-08T13:10:11.088Z,16.48
2022-11-08T13:12:52.163Z,16.48
2022-11-08T13:15:26.234Z,16.49
2022-11-08T13:18:33.898Z,16.50
2022-11-08T13:21:38.379Z,16.53
2022-11-08T13:24:45.679Z,16.49
2022-11-08T13:27:41.018Z,16.44
2022-11-08T13:30:36.811Z,16.36
2022-11-08T13:33:20.372Z,16.27
2022-11-08T13:36:05.019Z,16.20
2022-11-08T13:38:50.341Z,16.22
2022-11-08T13:41:21.796Z,16.25
2022-11-08T13:43:56.342Z,16.19
2022-11-08T13:46:44.878Z,16.10
2022-11-08T13:49:24.269Z,16.06
2022-11-08T13:52:27.012Z,15.97
2022-11-08T13:54:59.044Z,15.83
2022-11-08T13:57:58.839Z,15.84
2022-11-08T14:00:47.015Z,15.87
2022-11-08T14:03:55.432Z,15.93
2022-11-08T14:06:33.665Z,15.98
2022-11-08T14:09:16.973Z,16.00
2022-11-08T14:11:59.089Z,16.04
2022-11-08T14:14:43.401Z,16.05
2022-11-08T14:17:29.017Z,16.08
2022-11-08T14:20:22.939Z,16.14
2022-11-08T14:22:55.383Z,16.21
2022-11-08T14:25:31.504Z,16.21
2022-11-08T14:28:03.662Z,16.19
2022-11-08T14:30:35.768Z,16.19
2022-11-08T14:33:19.256Z,16.17
2022-11-08T14:36:03.665Z,16.14
2022-11-08T14:38:38.059Z,16.09
2022-11-08T14:41:16.309Z,16.04
2022-11-08T14:43:55.062Z,15.99
2022-11-08T14:46:33.147Z,15.91
2022-11-08T14:49:20.213Z,15.85
2022-11-08T14:52:07.843Z,15.77
2022-11-08T14:54:43.268Z,15.67
2022-11-08T14:57:36.553Z,15.58
2022-11-08T15:00:18.947Z,15.49
2022-11-08T15:02:54.515Z,15.34
2022-11-08T15:05:33.721Z,15.35
2022-11-08T15:08:09.517Z,15.31
2022-11-08T15:10:52.521Z,15.24
2022-11-08T15:13:25.232Z,15.18
2022-11-08T15:16:02.324Z,15.08
2022-11-08T15:18:37.748Z,14.89
2022-11-08T15:21:24.485Z,14.90
2022-11-08T15:24:06.053Z,14.81
2022-11-08T15:26:38.396Z,14.75
2022-11-08T15:29:19.831Z,14.70
2022-11-08T15:32:01.178Z,14.67
2022-11-08T15:34:38.940Z,14.62
2022-11-08T15:37:28.164Z,14.58
2022-11-08T15:40:04.956Z,14.53
2022-11-08T15:42:44.715Z,14.51
2022-11-08T15:45:26.890Z,14.48
2022-11-08T15:48:13.727Z,14.46
2022-11-08T15:50:45.761Z,14.46
2022-11-08T15:53:18.830Z,14.45
2022-11-08T15:55:54.824Z,14.40
2022-11-08T15:58:30.099Z,14.36
2022-11-08T16:01:04.989Z,14.35
2022-11-08T16:03:37.073Z,14.29
2022-11-08T16:06:10.881Z,14.17
2022-11-08T16:08:43.277Z,14.23
2022-11-08T16:11:20.778Z,14.16
2022-11-08T16:13:52.968Z,14.17
2022-11-08T16:16:25.157Z,14.17
2022-11-08T16:18:57.182Z,14.16
2022-11-08T16:21:29.739Z,14.15
2022-11-08T16:24:02.615Z,14.14
2022-11-08T16:26:35.844Z,14.12
2022-11-08T16:29:08.688Z,14.10
2022-11-08T16:31:40.935Z,14.10
2022-11-08T16:34:13.418Z,14.03
2022-11-08T16:36:46.696Z,14.04
2022-11-08T16:39:22.773Z,14.06
2022-11-08T16:41:54.959Z,14.08
2022-11-08T16:44:27.092Z,14.05
2022-11-08T16:46:59.171Z,14.04
2022-11-08T16:49:33.404Z,14.04
2022-11-08T16:52:05.522Z,14.04
2022-11-08T16:54:37.896Z,14.02
2022-11-08T17:00:02.405Z,13.99
2022-11-08T17:02:37.109Z,13.98
2022-11-08T17:05:13.627Z,13.98
2022-11-08T17:07:45.952Z,13.99
2022-11-08T17:10:21.163Z,13.99
2022-11-08T17:12:54.372Z,13.99
2022-11-08T17:15:29.073Z,13.98
2022-11-08T17:18:00.202Z,14.02
2022-11-08T17:20:32.391Z,13.99
2022-11-08T17:23:04.660Z,13.97
2022-11-08T17:25:39.919Z,13.99
2022-11-08T17:28:13.771Z,14.00
2022-11-08T17:30:45.906Z,13.89
2022-11-08T17:33:18.388Z,13.88
2022-11-08T17:35:50.840Z,13.90
2022-11-08T17:38:23.038Z,13.85
2022-11-08T17:41:02.537Z,13.93
2022-11-08T17:43:34.999Z,13.93
2022-11-08T17:46:07.280Z,13.75
2022-11-08T17:48:40.049Z,13.88
2022-11-08T17:51:15.446Z,13.85
2022-11-08T17:53:48.579Z,13.92
2022-11-08T17:56:22.381Z,13.83
2022-11-08T17:58:55.186Z,13.92
2022-11-08T18:01:27.481Z,13.90
2022-11-08T18:04:00.371Z,13.89
2022-11-08T18:06:33.340Z,13.93
2022-11-08T18:09:06.521Z,13.80
2022-11-08T18:11:40.239Z,13.97
2022-11-08T18:14:13.876Z,13.97
2022-11-08T18:16:49.089Z,14.00
2022-11-08T18:19:22.438Z,13.95
2022-11-08T18:21:55.063Z,14.00
2022-11-08T18:24:28.490Z,13.95
2022-11-08T18:27:02.050Z,13.93
2022-11-08T18:29:34.923Z,13.93
2022-11-08T18:32:08.321Z,13.99
2022-11-08T18:34:40.776Z,14.00
2022-11-08T18:37:13.153Z,14.00
2022-11-08T18:39:45.652Z,13.94
2022-11-08T18:42:18.334Z,13.96
2022-11-08T18:44:51.074Z,14.01
2022-11-08T18:47:24.143Z,13.95
2022-11-08T18:50:01.379Z,14.02
2022-11-08T18:52:34.874Z,13.98
2022-11-08T18:55:09.745Z,14.00
2022-11-08T18:57:46.199Z,13.98
2022-11-08T19:00:21.551Z,13.86
2022-11-08T19:02:55.717Z,13.88
2022-11-08T19:05:29.906Z,13.95
2022-11-08T19:08:04.296Z,13.95
2022-11-08T19:10:39.228Z,13.91
2022-11-08T19:13:14.345Z,13.91
2022-11-08T19:15:57.263Z,13.89
2022-11-08T19:18:32.755Z,13.87
2022-11-08T19:21:09.581Z,13.76
2022-11-08T19:23:44.206Z,13.71
2022-11-08T19:26:20.037Z,13.68
2022-11-08T19:28:58.166Z,13.79
2022-11-08T19:31:35.299Z,13.80
2022-11-08T19:34:09.655Z,13.85
2022-11-08T19:36:44.926Z,13.87
2022-11-08T19:39:20.597Z,13.83
2022-11-08T19:41:55.359Z,13.83
2022-11-08T19:44:29.754Z,13.81
2022-11-08T19:47:05.050Z,13.76
2022-11-08T19:49:40.395Z,13.70
2022-11-08T19:52:15.354Z,13.73
2022-11-08T19:54:50.368Z,13.73
2022-11-08T19:57:29.604Z,13.69
2022-11-08T20:00:06.206Z,13.69
2022-11-08T20:02:47.135Z,13.72
2022-11-08T20:05:19.247Z,13.71
2022-11-08T20:07:53.271Z,13.68
2022-11-08T20:10:28.193Z,13.66
2022-11-08T20:13:00.466Z,13.57
2022-11-08T20:15:34.359Z,13.60
2022-11-08T20:18:09.796Z,13.58
2022-11-08T20:20:44.340Z,13.55
2022-11-08T20:23:18.895Z,13.56
2022-11-08T20:25:51.299Z,13.56
2022-11-08T20:28:24.142Z,13.55
2022-11-08T20:31:03.978Z,13.51
2022-11-08T20:33:38.058Z,13.49
2022-11-08T20:36:13.247Z,13.34
2022-11-08T20:38:46.087Z,13.30
2022-11-08T20:41:19.524Z,13.38
2022-11-08T20:43:51.777Z,13.37
2022-11-08T20:46:25.586Z,13.36
2022-11-08T20:49:01.736Z,13.36
2022-11-08T20:51:35.116Z,13.39
2022-11-08T20:54:07.357Z,13.23
2022-11-08T20:56:39.440Z,13.28
2022-11-08T20:59:12.401Z,13.26
2022-11-08T21:01:44.810Z,13.12
2022-11-08T21:04:17.194Z,13.18
2022-11-08T21:07:00.626Z,13.20
2022-11-08T21:09:49.931Z,13.12
2022-11-08T21:12:23.378Z,13.19
2022-11-08T21:14:55.724Z,13.13
2022-11-08T21:17:28.073Z,13.22
2022-11-08T21:20:00.802Z,13.22
2022-11-08T21:22:33.951Z,13.28
2022-11-08T21:25:06.902Z,13.08
2022-11-08T21:27:39.147Z,13.14
2022-11-08T21:30:13.366Z,13.13
2022-11-08T21:32:46.129Z,13.15
2022-11-08T21:35:18.812Z,13.11
2022-11-08T21:37:51.276Z,13.13
2022-11-08T21:40:23.599Z,13.11
2022-11-08T21:42:55.845Z,13.09
2022-11-08T21:45:29.055Z,13.08
2022-11-08T21:48:01.438Z,13.04
2022-11-08T21:50:34.507Z,13.06
2022-11-08T21:53:08.107Z,13.06
2022-11-08T21:55:40.565Z,13.06
2022-11-08T21:58:12.955Z,13.02
2022-11-08T22:00:50.971Z,13.03
2022-11-08T22:03:23.629Z,12.94
2022-11-08T22:05:56.074Z,12.88
2022-11-08T22:08:28.550Z,12.91
2022-11-08T22:11:00.843Z,12.90
2022-11-08T22:13:33.118Z,12.92
2022-11-08T22:16:05.951Z,12.89
2022-11-08T22:21:41.221Z,12.89
2022-11-08T22:24:17.316Z,12.81
2022-11-08T22:26:50.810Z,12.90
2022-11-08T22:29:23.282Z,12.81
2022-11-08T22:31:56.101Z,12.82
2022-11-08T22:34:28.700Z,12.86
2022-11-08T22:37:01.155Z,12.90
2022-11-08T22:39:33.353Z,12.84
2022-11-08T22:42:06.326Z,12.70
2022-11-08T22:44:38.898Z,12.58
2022-11-08T22:47:11.163Z,12.56
2022-11-08T22:49:45.128Z,12.61
2022-11-08T22:52:17.610Z,12.62
2022-11-08T22:54:50.018Z,12.56
2022-11-08T22:57:22.275Z,12.57
2022-11-08T22:59:54.575Z,12.59
2022-11-08T23:02:32.697Z,12.57
2022-11-08T23:05:06.422Z,12.49
2022-11-08T23:07:40.911Z,12.55
2022-11-08T23:10:13.501Z,12.55
2022-11-08T23:13:03.484Z,12.54
2022-11-08T23:15:50.214Z,12.55
2022-11-08T23:18:23.042Z,12.56
2022-11-08T23:21:15.649Z,12.57
2022-11-08T23:24:05.732Z,12.56
2022-11-08T23:27:00.806Z,12.55
2022-11-08T23:29:50.455Z,12.44
2022-11-08T23:32:22.789Z,12.40
2022-11-08T23:34:55.092Z,12.46
2022-11-08T23:37:27.818Z,12.44
2022-11-08T23:40:17.825Z,12.41
2022-11-08T23:43:07.354Z,12.36
2022-11-08T23:45:39.664Z,12.40
2022-11-08T23:48:11.612Z,12.44
2022-11-08T23:50:49.895Z,12.33
2022-11-08T23:53:25.143Z,12.32
2022-11-08T23:55:57.659Z,12.34
2022-11-08T23:58:29.641Z,12.31
